createdAt,value
2018-12-13T00:05:34.692Z,7.93
2018-12-13T00:13:55.831Z,7.93
2018-12-13T00:22:17.591Z,8.43
2018-12-13T00:30:38.643Z,8.37
2018-12-13T00:38:59.696Z,9.07
2018-12-13T00:47:20.746Z,9.20
2018-12-13T00:55:41.890Z,9.43
2018-12-13T01:04:02.959Z,9.20
2018-12-13T01:12:24.007Z,8.97
2018-12-13T01:20:45.078Z,9.33
2018-12-13T01:29:06.130Z,9.43
2018-12-13T01:37:27.186Z,8.80
2018-12-13T01:45:48.239Z,8.50
2018-12-13T01:54:09.295Z,8.53
2018-12-13T02:02:30.347Z,8.63
2018-12-13T02:10:51.409Z,9.53
2018-12-13T02:19:12.459Z,9.30
2018-12-13T02:27:33.518Z,9.83
2018-12-13T02:35:54.561Z,9.30
2018-12-13T02:44:15.636Z,10.13
2018-12-13T02:52:36.795Z,10.13
2018-12-13T03:00:57.847Z,10.40
2018-12-13T03:09:18.899Z,10.33
2018-12-13T03:17:39.952Z,11.03
2018-12-13T03:26:01.008Z,10.30
2018-12-13T03:34:22.084Z,10.80
2018-12-13T03:42:43.139Z,10.70
2018-12-13T03:51:04.191Z,10.73
2018-12-13T03:59:25.268Z,10.10
2018-12-13T04:07:46.327Z,10.20
2018-12-13T04:16:07.383Z,10.03
2018-12-13T04:24:28.443Z,9.87
2018-12-13T04:32:49.490Z,9.93
2018-12-13T04:41:10.542Z,9.93
2018-12-13T04:49:31.577Z,10.03
2018-12-13T04:57:52.600Z,10.40
2018-12-13T05:06:13.652Z,11.20
2018-12-13T05:14:34.627Z,9.30
2018-12-13T05:22:55.647Z,11.03
2018-12-13T05:31:16.783Z,11.23
2018-12-13T05:39:37.707Z,10.90
2018-12-13T05:47:58.743Z,10.73
2018-12-13T05:56:19.758Z,11.33
2018-12-13T06:04:40.787Z,11.10
2018-12-13T06:13:01.914Z,12.03
2018-12-13T06:21:22.942Z,12.00
2018-12-13T06:29:48.869Z,11.30
2018-12-13T06:38:07.023Z,11.93
2018-12-13T06:46:28.134Z,12.17
2018-12-13T06:54:49.155Z,12.50
2018-12-13T07:03:10.183Z,12.80
2018-12-13T07:11:31.131Z,12.40
2018-12-13T07:19:52.155Z,12.27
2018-12-13T07:28:13.287Z,12.87
2018-12-13T07:36:34.322Z,13.03
2018-12-13T07:44:55.377Z,13.60
2018-12-13T07:53:16.396Z,13.90
2018-12-13T08:01:37.424Z,14.40
2018-12-13T08:09:58.539Z,14.27
2018-12-13T08:18:19.559Z,14.87
2018-12-13T08:26:40.588Z,14.03
2018-12-13T08:35:01.631Z,14.03
2018-12-13T08:43:22.661Z,15.13
2018-12-13T08:51:43.689Z,14.60
2018-12-13T09:00:04.807Z,18.65
2018-12-13T09:08:25.875Z,15.37
2018-12-13T09:16:46.875Z,14.53
2018-12-13T09:25:07.887Z,14.10
2018-12-13T09:33:29.115Z,15.07
2018-12-13T09:41:50.227Z,15.03
2018-12-13T09:50:11.239Z,14.97
2018-12-13T09:58:32.363Z,15.47
2018-12-13T10:06:53.367Z,16.73
2018-12-13T10:15:14.376Z,13.80
2018-12-13T10:23:35.383Z,14.77
2018-12-13T10:31:57.050Z,15.37
2018-12-13T10:40:18.206Z,14.47
2018-12-13T10:48:39.239Z,16.03
2018-12-13T10:57:00.308Z,15.57
2018-12-13T11:05:21.343Z,15.93
2018-12-13T11:13:42.423Z,15.93
2018-12-13T11:22:03.639Z,18.50
2018-12-13T11:30:24.660Z,17.87
2018-12-13T11:38:45.756Z,17.30
2018-12-13T11:47:06.799Z,16.27
2018-12-13T11:55:27.830Z,16.83
2018-12-13T12:03:48.851Z,17.83
2018-12-13T12:12:09.867Z,17.67
2018-12-13T12:20:30.895Z,17.07
2018-12-13T12:28:52.147Z,17.27
2018-12-13T12:37:13.154Z,17.63
2018-12-13T12:45:34.219Z,17.67
2018-12-13T12:53:55.286Z,17.23
2018-12-13T13:02:16.403Z,16.17
2018-12-13T13:10:37.419Z,17.20
2018-12-13T13:18:58.567Z,17.20
2018-12-13T13:27:19.695Z,16.23
2018-12-13T13:35:41.035Z,16.10
2018-12-13T13:44:02.171Z,16.17
2018-12-13T13:52:23.234Z,15.27
2018-12-13T14:00:44.242Z,21.10
2018-12-13T14:09:05.251Z,15.30
2018-12-13T14:17:26.279Z,15.17
2018-12-13T14:25:47.308Z,14.67
2018-12-13T14:34:08.503Z,15.20
2018-12-13T14:42:29.515Z,14.27
2018-12-13T14:50:50.527Z,12.83
2018-12-13T14:59:12.155Z,13.27
2018-12-13T15:07:33.187Z,13.37
2018-12-13T15:15:54.204Z,12.47
2018-12-13T15:24:15.323Z,12.40
2018-12-13T15:32:36.543Z,12.23
2018-12-13T15:40:57.557Z,12.53
2018-12-13T15:49:18.690Z,13.00
2018-12-13T15:57:39.606Z,13.33
2018-12-13T16:06:00.682Z,13.87
2018-12-13T16:14:21.768Z,14.23
2018-12-13T16:22:42.699Z,18.57
2018-12-13T16:31:03.819Z,21.57
2018-12-13T16:39:24.851Z,13.77
2018-12-13T16:47:45.948Z,15.23
2018-12-13T16:56:06.987Z,15.67
2018-12-13T17:04:28.139Z,15.33
2018-12-13T17:12:49.155Z,15.27
2018-12-13T17:21:10.183Z,35.20
2018-12-13T17:29:31.298Z,18.60
2018-12-13T17:37:52.243Z,15.93
2018-12-13T17:46:13.301Z,14.17
2018-12-13T17:54:34.533Z,14.53
2018-12-13T18:02:55.570Z,14.83
2018-12-13T18:11:16.591Z,14.73
2018-12-13T18:19:37.685Z,14.53
2018-12-13T18:27:58.730Z,15.73
2018-12-13T18:36:19.701Z,14.27
2018-12-13T18:44:41.028Z,14.57
2018-12-13T18:53:02.062Z,14.77
2018-12-13T19:01:23.222Z,14.27
2018-12-13T19:09:44.327Z,15.43
2018-12-13T19:18:05.347Z,15.53
2018-12-13T19:26:26.366Z,15.73
2018-12-13T19:34:47.386Z,14.70
2018-12-13T19:43:08.403Z,15.77
2018-12-13T19:51:29.428Z,17.47
2018-12-13T19:59:50.435Z,15.57
2018-12-13T20:08:11.499Z,19.48
2018-12-13T20:16:32.543Z,15.30
2018-12-13T20:24:53.555Z,15.90
2018-12-13T20:33:14.639Z,21.20
2018-12-13T20:41:35.655Z,16.60
2018-12-13T20:49:56.672Z,16.63
2018-12-13T20:58:17.702Z,16.03
2018-12-13T21:06:38.712Z,16.47
2018-12-13T21:14:59.780Z,17.10
2018-12-13T21:23:20.824Z,17.63
2018-12-13T21:31:41.881Z,17.90
2018-12-13T21:40:02.944Z,30.55
2018-12-13T21:53:32.734Z,16.83
2018-12-13T22:01:53.847Z,17.40
2018-12-13T22:10:15.891Z,17.83
2018-12-13T22:18:36.947Z,18.17
2018-12-13T22:26:58.003Z,17.30
2018-12-13T22:35:19.055Z,17.57
2018-12-13T22:43:40.227Z,16.47
2018-12-13T22:52:55.036Z,17.47
2018-12-13T23:01:16.092Z,17.20
2018-12-13T23:09:37.335Z,17.87
2018-12-13T23:17:58.526Z,16.80
2018-12-13T23:26:19.691Z,17.07
2018-12-13T23:34:40.799Z,17.40
2018-12-13T23:43:01.946Z,16.50
2018-12-13T23:51:23.195Z,15.40
2018-12-13T23:59:44.247Z,15.53
